createdAt,value
2024-01-31T00:00:53.407Z,29.69
2024-01-31T00:01:53.451Z,29.63
2024-01-31T00:02:53.408Z,29.68
2024-01-31T00:03:53.462Z,29.68
2024-01-31T00:04:53.562Z,29.68
2024-01-31T00:05:53.581Z,29.70
2024-01-31T00:06:53.605Z,29.70
2024-01-31T00:07:53.675Z,29.68
2024-01-31T00:08:53.758Z,29.68
2024-01-31T00:09:53.973Z,29.67
2024-01-31T00:10:53.866Z,29.70
2024-01-31T00:11:53.917Z,29.70
2024-01-31T00:12:54.078Z,29.69
2024-01-31T00:13:54.036Z,29.67
2024-01-31T00:14:54.150Z,29.65
2024-01-31T00:15:54.214Z,29.68
2024-01-31T00:16:54.202Z,29.66
2024-01-31T00:17:54.280Z,29.65
2024-01-31T00:18:54.398Z,29.66
2024-01-31T00:19:54.440Z,29.64
2024-01-31T00:20:54.466Z,29.67
2024-01-31T00:21:54.549Z,29.67
2024-01-31T00:22:54.565Z,29.63
2024-01-31T00:23:54.617Z,29.63
2024-01-31T00:24:54.727Z,29.65
2024-01-31T00:25:54.744Z,29.68
2024-01-31T00:26:54.802Z,29.67
2024-01-31T00:28:00.835Z,29.68
2024-01-31T00:28:54.919Z,29.64
2024-01-31T00:29:54.880Z,29.68
2024-01-31T00:30:54.975Z,29.67
2024-01-31T00:31:54.869Z,29.66
2024-01-31T00:32:54.922Z,29.65
2024-01-31T00:33:54.921Z,29.67
2024-01-31T00:34:54.957Z,29.69
2024-01-31T00:35:54.881Z,29.69
2024-01-31T00:36:54.920Z,29.67
2024-01-31T00:37:54.878Z,29.70
2024-01-31T00:38:54.877Z,29.64
2024-01-31T00:39:54.977Z,29.65
2024-01-31T00:40:54.891Z,29.68
2024-01-31T00:41:54.900Z,29.63
2024-01-31T00:42:54.960Z,29.61
2024-01-31T00:43:54.892Z,29.60
2024-01-31T00:44:54.900Z,29.66
2024-01-31T00:45:54.968Z,29.67
2024-01-31T00:46:55.285Z,29.57
2024-01-31T00:48:15.978Z,29.66
2024-01-31T00:48:55.132Z,29.69
2024-01-31T00:49:54.924Z,29.74
2024-01-31T00:50:54.900Z,29.71
2024-01-31T00:51:55.003Z,29.70
2024-01-31T00:52:54.920Z,29.67
2024-01-31T00:53:54.889Z,29.66
2024-01-31T00:54:54.910Z,29.65
2024-01-31T00:55:54.889Z,29.65
2024-01-31T00:56:54.900Z,29.67
2024-01-31T00:57:54.936Z,29.66
2024-01-31T00:58:54.922Z,29.64
2024-01-31T00:59:54.906Z,29.57
2024-01-31T01:00:55.019Z,29.61
2024-01-31T01:01:54.998Z,29.62
2024-01-31T01:02:54.914Z,29.64
2024-01-31T01:03:55.098Z,29.66
2024-01-31T01:04:54.983Z,29.61
2024-01-31T01:05:54.948Z,29.65
2024-01-31T01:06:54.985Z,29.56
2024-01-31T01:07:54.904Z,29.59
2024-01-31T01:08:54.919Z,29.62
2024-01-31T01:09:54.949Z,29.59
2024-01-31T01:10:54.922Z,29.62
2024-01-31T01:11:54.921Z,29.61
2024-01-31T01:12:54.963Z,29.60
2024-01-31T01:13:54.914Z,29.63
2024-01-31T01:15:01.635Z,29.68
2024-01-31T01:15:55.945Z,29.69
2024-01-31T01:16:54.937Z,29.68
2024-01-31T01:17:54.963Z,29.68
2024-01-31T01:18:55.032Z,29.66
2024-01-31T01:19:54.983Z,29.67
2024-01-31T01:20:54.946Z,29.69
2024-01-31T01:21:55.073Z,29.66
2024-01-31T01:22:54.963Z,29.65
2024-01-31T01:23:54.958Z,29.59
2024-01-31T01:24:55.071Z,29.63
2024-01-31T01:25:54.973Z,29.59
2024-01-31T01:26:55.038Z,29.62
2024-01-31T01:27:55.215Z,29.67
2024-01-31T01:28:55.149Z,29.64
2024-01-31T01:29:55.198Z,29.67
2024-01-31T01:30:55.362Z,29.60
2024-01-31T01:31:55.403Z,29.61
2024-01-31T01:32:55.382Z,29.59
2024-01-31T01:33:55.457Z,29.65
2024-01-31T01:34:55.519Z,29.66
2024-01-31T01:35:55.486Z,29.68
2024-01-31T01:36:55.568Z,29.65
2024-01-31T01:37:55.552Z,29.60
2024-01-31T01:38:55.600Z,29.62
2024-01-31T01:39:55.670Z,29.58
2024-01-31T01:40:55.690Z,29.59
2024-01-31T01:41:55.721Z,29.64
2024-01-31T01:42:55.947Z,29.64
2024-01-31T01:43:55.776Z,29.63
2024-01-31T01:44:55.829Z,29.63
2024-01-31T01:45:55.869Z,29.64
2024-01-31T01:46:55.911Z,29.66
2024-01-31T01:47:56.039Z,29.61
2024-01-31T01:48:56.166Z,29.60
2024-01-31T01:49:56.083Z,29.62
2024-01-31T01:50:56.063Z,29.61
2024-01-31T01:51:56.193Z,29.55
2024-01-31T01:52:56.129Z,29.63
2024-01-31T01:53:56.154Z,29.65
2024-01-31T01:54:56.277Z,29.62
2024-01-31T01:55:56.237Z,29.65
2024-01-31T01:56:56.288Z,29.65
2024-01-31T01:57:56.492Z,29.60
2024-01-31T01:58:56.386Z,29.66
2024-01-31T01:59:56.397Z,29.62
2024-01-31T02:00:56.560Z,29.64
2024-01-31T02:01:56.495Z,29.60
2024-01-31T02:02:56.538Z,29.61
2024-01-31T02:03:56.628Z,29.66
2024-01-31T02:04:56.849Z,29.62
2024-01-31T02:05:56.685Z,29.63
2024-01-31T02:06:56.811Z,29.57
2024-01-31T02:07:56.775Z,29.56
2024-01-31T02:08:56.759Z,29.65
2024-01-31T02:09:56.869Z,29.62
2024-01-31T02:10:56.838Z,29.56
2024-01-31T02:11:56.880Z,29.62
2024-01-31T02:12:56.955Z,29.65
2024-01-31T02:13:56.958Z,29.57
2024-01-31T02:14:57.013Z,29.58
2024-01-31T02:15:57.131Z,29.61
2024-01-31T02:16:57.081Z,29.60
2024-01-31T02:17:57.207Z,29.63
2024-01-31T02:18:57.136Z,29.57
2024-01-31T02:19:57.236Z,29.61
2024-01-31T02:20:57.187Z,29.59
2024-01-31T02:21:57.289Z,29.55
2024-01-31T02:22:57.268Z,29.60
2024-01-31T02:23:57.297Z,29.66
2024-01-31T02:24:57.384Z,29.63
2024-01-31T02:25:57.362Z,29.60
2024-01-31T02:26:57.396Z,29.62
2024-01-31T02:27:57.538Z,29.58
2024-01-31T02:28:57.477Z,29.63
2024-01-31T02:29:57.526Z,29.55
2024-01-31T02:30:57.554Z,29.63
2024-01-31T02:31:57.564Z,29.59
2024-01-31T02:32:57.660Z,29.59
2024-01-31T02:33:57.782Z,29.64
2024-01-31T02:34:57.784Z,29.63
2024-01-31T02:35:57.743Z,29.63
2024-01-31T02:36:57.816Z,29.60
2024-01-31T02:37:57.804Z,29.61
2024-01-31T02:38:57.841Z,29.57
2024-01-31T02:39:57.950Z,29.56
2024-01-31T02:40:57.920Z,29.59
2024-01-31T02:41:57.932Z,29.56
2024-01-31T02:42:58.004Z,29.58
2024-01-31T02:43:57.999Z,29.56
2024-01-31T02:44:58.028Z,29.60
2024-01-31T02:45:58.076Z,29.62
2024-01-31T02:46:58.089Z,29.63
2024-01-31T02:47:58.269Z,29.60
2024-01-31T02:48:58.223Z,29.63
2024-01-31T02:49:58.169Z,29.62
2024-01-31T02:50:58.173Z,29.53
2024-01-31T02:51:58.190Z,29.59
2024-01-31T02:52:58.215Z,29.53
2024-01-31T02:53:58.228Z,29.53
2024-01-31T02:54:58.299Z,29.58
2024-01-31T02:55:58.267Z,29.58
2024-01-31T02:56:58.290Z,29.64
2024-01-31T02:57:58.338Z,29.58
2024-01-31T02:58:58.350Z,29.55
2024-01-31T02:59:58.358Z,29.62
2024-01-31T03:00:58.499Z,29.59
2024-01-31T03:01:58.564Z,29.59
2024-01-31T03:02:58.461Z,29.59
2024-01-31T03:03:58.533Z,29.53
2024-01-31T03:04:58.620Z,29.59
2024-01-31T03:05:58.613Z,29.57
2024-01-31T03:06:58.595Z,29.57
2024-01-31T03:07:58.595Z,29.59
2024-01-31T03:08:58.618Z,29.54
2024-01-31T03:09:58.661Z,29.50
2024-01-31T03:10:58.676Z,29.57
2024-01-31T03:11:58.691Z,29.58
2024-01-31T03:12:58.765Z,29.64
2024-01-31T03:13:58.764Z,29.55
2024-01-31T03:14:58.777Z,29.59
2024-01-31T03:15:58.895Z,29.59
2024-01-31T03:16:58.833Z,29.62
2024-01-31T03:17:59.277Z,29.56
2024-01-31T03:18:59.034Z,29.60
2024-01-31T03:19:58.949Z,29.59
2024-01-31T03:20:58.931Z,29.59
2024-01-31T03:21:58.981Z,29.54
2024-01-31T03:22:58.960Z,29.58
2024-01-31T03:23:58.983Z,29.56
2024-01-31T03:24:59.043Z,29.56
2024-01-31T03:25:59.020Z,29.50
2024-01-31T03:26:59.034Z,29.56
2024-01-31T03:27:59.099Z,29.54
2024-01-31T03:28:59.120Z,29.57
2024-01-31T03:29:59.129Z,29.55
2024-01-31T03:30:59.228Z,29.50
2024-01-31T03:31:59.189Z,29.46
2024-01-31T03:32:59.331Z,29.47
2024-01-31T03:33:59.484Z,29.41
2024-01-31T03:34:59.314Z,29.33
2024-01-31T03:35:59.283Z,29.36
2024-01-31T03:36:59.373Z,29.31
2024-01-31T03:37:59.338Z,29.26
2024-01-31T03:38:59.388Z,29.32
2024-01-31T03:39:59.463Z,29.27
2024-01-31T03:40:59.429Z,29.27
2024-01-31T03:41:59.444Z,29.31
2024-01-31T03:42:59.533Z,29.29
2024-01-31T03:43:59.541Z,29.31
2024-01-31T03:44:59.593Z,29.28
2024-01-31T03:45:59.638Z,29.29
2024-01-31T03:46:59.678Z,29.29
2024-01-31T03:47:59.698Z,29.32
2024-01-31T03:48:59.876Z,29.30
2024-01-31T03:49:59.792Z,29.27
2024-01-31T03:50:59.838Z,29.27
2024-01-31T03:51:59.859Z,29.26
2024-01-31T03:52:59.915Z,29.26
2024-01-31T03:53:59.953Z,29.25
2024-01-31T03:55:00.003Z,29.26
2024-01-31T03:56:00.066Z,29.25
2024-01-31T03:57:00.122Z,29.26
2024-01-31T03:58:00.189Z,29.24
2024-01-31T03:59:00.205Z,29.25
2024-01-31T04:00:00.237Z,29.25
2024-01-31T04:01:00.394Z,29.25
2024-01-31T04:02:00.488Z,29.21
2024-01-31T04:03:00.400Z,29.22
2024-01-31T04:04:00.575Z,29.24
2024-01-31T04:05:00.766Z,29.25
2024-01-31T04:06:00.573Z,29.25
2024-01-31T04:07:00.639Z,29.27
2024-01-31T04:08:00.683Z,29.26
2024-01-31T04:09:00.830Z,29.27
2024-01-31T04:10:00.819Z,29.24
2024-01-31T04:11:00.847Z,29.25
2024-01-31T04:12:00.923Z,29.25
2024-01-31T04:13:00.976Z,29.24
2024-01-31T04:14:00.973Z,29.23
2024-01-31T04:15:01.024Z,29.24
2024-01-31T04:16:01.118Z,29.24
2024-01-31T04:17:01.169Z,29.22
2024-01-31T04:18:01.314Z,29.22
2024-01-31T04:19:01.355Z,29.21
2024-01-31T04:20:01.461Z,29.21
2024-01-31T04:21:01.364Z,29.22
2024-01-31T04:22:01.416Z,29.20
2024-01-31T04:23:01.467Z,29.22
2024-01-31T04:24:01.490Z,29.19
2024-01-31T04:25:01.634Z,29.21
2024-01-31T04:26:01.600Z,29.20
2024-01-31T04:27:01.668Z,29.20
2024-01-31T04:28:01.767Z,29.19
2024-01-31T04:29:01.796Z,29.19
2024-01-31T04:30:01.832Z,29.19
2024-01-31T04:31:01.955Z,29.17
2024-01-31T04:32:09.165Z,29.22
2024-01-31T04:33:09.232Z,29.20
2024-01-31T04:34:09.286Z,29.20
2024-01-31T04:35:09.248Z,29.18
2024-01-31T04:36:09.158Z,29.18
2024-01-31T04:37:09.207Z,29.18
2024-01-31T04:38:09.166Z,29.17
2024-01-31T04:39:09.173Z,29.18
2024-01-31T04:40:09.204Z,29.18
2024-01-31T04:41:09.170Z,29.16
2024-01-31T04:42:09.165Z,29.16
2024-01-31T04:43:09.193Z,29.16
2024-01-31T04:44:09.188Z,29.15
2024-01-31T04:45:09.174Z,29.15
2024-01-31T04:46:09.221Z,29.13
2024-01-31T04:47:09.175Z,29.13
2024-01-31T04:48:09.867Z,29.13
2024-01-31T04:49:09.436Z,29.12
2024-01-31T04:50:09.338Z,29.13
2024-01-31T04:51:09.186Z,29.11
2024-01-31T04:52:09.241Z,29.11
2024-01-31T04:53:09.296Z,29.11
2024-01-31T04:54:09.351Z,29.10
2024-01-31T04:55:09.449Z,29.10
2024-01-31T04:56:09.466Z,29.07
2024-01-31T04:57:09.531Z,29.07
2024-01-31T04:58:09.602Z,29.08
2024-01-31T04:59:09.651Z,29.07
2024-01-31T05:00:09.708Z,29.09
2024-01-31T05:01:09.887Z,29.07
2024-01-31T05:02:09.873Z,29.08
2024-01-31T05:03:09.890Z,29.06
2024-01-31T05:04:10.035Z,29.06
2024-01-31T05:05:10.081Z,29.05
2024-01-31T05:06:10.069Z,29.04
2024-01-31T05:07:10.160Z,29.02
2024-01-31T05:08:10.181Z,29.03
2024-01-31T05:09:10.239Z,29.04
2024-01-31T05:10:10.408Z,29.04
2024-01-31T05:11:10.354Z,29.02
2024-01-31T05:12:10.411Z,29.02
2024-01-31T05:13:10.504Z,29.01
2024-01-31T05:14:10.544Z,28.99
2024-01-31T05:15:10.579Z,29.01
2024-01-31T05:16:10.666Z,29.00
2024-01-31T05:17:10.703Z,28.97
2024-01-31T05:18:10.789Z,28.97
2024-01-31T05:19:10.918Z,29.00
2024-01-31T05:20:10.939Z,28.98
2024-01-31T05:21:10.948Z,28.98
2024-01-31T05:22:11.025Z,28.99
2024-01-31T05:23:11.080Z,28.98
2024-01-31T05:24:11.131Z,28.97
2024-01-31T05:25:11.226Z,28.98
2024-01-31T05:26:11.254Z,28.96
2024-01-31T05:27:11.306Z,28.99
2024-01-31T05:28:11.384Z,28.97
2024-01-31T05:29:11.427Z,28.98
2024-01-31T05:30:11.474Z,28.96
2024-01-31T05:31:11.592Z,28.96
2024-01-31T05:32:11.586Z,28.95
2024-01-31T05:33:11.751Z,28.97
2024-01-31T05:34:11.976Z,28.96
2024-01-31T05:35:11.754Z,28.94
2024-01-31T05:36:11.808Z,28.95
2024-01-31T05:37:11.879Z,28.95
2024-01-31T05:38:11.924Z,28.93
2024-01-31T05:39:11.999Z,28.95
2024-01-31T05:40:12.061Z,28.94
2024-01-31T05:41:12.112Z,28.94
2024-01-31T05:42:12.153Z,28.94
2024-01-31T05:43:12.245Z,28.94
2024-01-31T05:44:12.259Z,28.93
2024-01-31T05:45:12.314Z,28.91
2024-01-31T05:46:12.404Z,28.92
2024-01-31T05:47:12.447Z,28.94
2024-01-31T05:48:12.514Z,28.92
2024-01-31T05:50:12.778Z,28.92
2024-01-31T05:51:12.604Z,28.92
2024-01-31T05:52:12.671Z,28.92
2024-01-31T05:53:12.717Z,28.90
2024-01-31T05:54:12.762Z,28.91
2024-01-31T05:55:12.850Z,28.91
2024-01-31T05:56:12.865Z,28.91
2024-01-31T05:57:12.929Z,28.92
2024-01-31T05:58:13.046Z,28.94
2024-01-31T05:59:13.028Z,28.92
2024-01-31T06:00:14.602Z,28.92
2024-01-31T06:01:13.214Z,28.91
2024-01-31T06:02:13.272Z,28.92
2024-01-31T06:03:13.287Z,28.90
2024-01-31T06:04:13.442Z,28.90
2024-01-31T06:05:13.478Z,28.90
2024-01-31T06:06:13.470Z,28.92
2024-01-31T06:07:13.481Z,28.91
2024-01-31T06:08:13.465Z,28.91
2024-01-31T06:09:13.553Z,28.89
2024-01-31T06:10:13.957Z,28.90
2024-01-31T06:11:13.623Z,28.92
2024-01-31T06:12:13.673Z,28.90
2024-01-31T06:13:13.772Z,28.91
2024-01-31T06:14:13.774Z,28.89
2024-01-31T06:15:13.829Z,28.91
2024-01-31T06:16:13.896Z,28.91
2024-01-31T06:17:13.943Z,28.87
2024-01-31T06:18:14.276Z,28.94
2024-01-31T06:19:14.072Z,28.96
2024-01-31T06:20:14.185Z,28.99
2024-01-31T06:21:14.209Z,28.96
2024-01-31T06:22:14.225Z,28.92
2024-01-31T06:23:14.247Z,28.92
2024-01-31T06:24:14.314Z,28.93
2024-01-31T06:25:14.435Z,28.90
2024-01-31T06:26:14.403Z,28.91
2024-01-31T06:27:14.473Z,28.89
2024-01-31T06:28:14.565Z,28.94
2024-01-31T06:29:14.580Z,28.97
2024-01-31T06:30:15.610Z,28.96
2024-01-31T06:31:14.786Z,28.97
2024-01-31T06:32:14.810Z,28.88
2024-01-31T06:33:14.880Z,28.90
2024-01-31T06:34:14.906Z,28.94
2024-01-31T06:35:14.989Z,28.98
2024-01-31T06:36:14.941Z,29.02
2024-01-31T06:37:15.027Z,29.12
2024-01-31T06:38:15.039Z,29.21
2024-01-31T06:39:15.082Z,29.42
2024-01-31T06:40:15.209Z,29.44
2024-01-31T06:41:15.188Z,29.47
2024-01-31T06:42:15.225Z,29.55
2024-01-31T06:43:15.333Z,29.77
2024-01-31T06:44:15.367Z,30.10
2024-01-31T06:45:16.301Z,30.46
2024-01-31T06:46:15.470Z,30.12
2024-01-31T06:47:15.561Z,30.19
2024-01-31T06:48:15.651Z,30.51
2024-01-31T06:49:15.733Z,30.48
2024-01-31T06:50:15.782Z,30.71
2024-01-31T06:51:15.596Z,31.14
2024-01-31T06:52:15.655Z,31.15
2024-01-31T06:53:15.665Z,31.06
2024-01-31T06:54:15.706Z,31.21
2024-01-31T06:55:15.784Z,30.15
2024-01-31T06:56:15.777Z,30.05
2024-01-31T06:57:15.817Z,28.91
2024-01-31T06:58:15.922Z,28.50
2024-01-31T06:59:15.925Z,27.33
2024-01-31T07:00:15.939Z,26.97
2024-01-31T07:01:16.079Z,26.31
2024-01-31T07:02:16.055Z,25.91
2024-01-31T07:03:16.075Z,25.50
2024-01-31T07:04:16.183Z,25.76
2024-01-31T07:05:16.343Z,25.87
2024-01-31T07:06:16.204Z,25.89
2024-01-31T07:07:16.354Z,25.59
2024-01-31T07:08:16.303Z,25.62
2024-01-31T07:09:16.378Z,25.39
2024-01-31T07:10:16.474Z,25.52
2024-01-31T07:11:16.428Z,25.35
2024-01-31T07:12:16.483Z,25.19
2024-01-31T07:13:16.594Z,25.02
2024-01-31T07:14:16.600Z,24.83
2024-01-31T07:15:18.990Z,24.78
2024-01-31T07:16:16.906Z,24.63
2024-01-31T07:17:16.900Z,24.56
2024-01-31T07:18:17.051Z,24.55
2024-01-31T07:19:17.086Z,24.51
2024-01-31T07:20:17.124Z,24.48
2024-01-31T07:21:18.310Z,24.43
2024-01-31T07:22:17.025Z,24.41
2024-01-31T07:23:17.016Z,24.40
2024-01-31T07:24:24.715Z,24.27
2024-01-31T07:25:18.094Z,24.22
2024-01-31T07:26:17.000Z,24.17
2024-01-31T07:27:17.011Z,24.07
2024-01-31T07:28:17.070Z,24.06
2024-01-31T07:29:17.013Z,23.86
2024-01-31T07:30:17.019Z,23.88
2024-01-31T07:31:17.057Z,23.83
2024-01-31T07:32:17.026Z,23.79
2024-01-31T07:33:17.114Z,23.78
2024-01-31T07:34:17.083Z,23.77
2024-01-31T07:35:17.056Z,23.76
2024-01-31T07:36:17.027Z,23.69
2024-01-31T07:37:17.056Z,23.75
2024-01-31T07:38:18.770Z,23.68
2024-01-31T07:39:17.033Z,23.76
2024-01-31T07:40:17.042Z,23.75
2024-01-31T07:41:17.117Z,23.74
2024-01-31T07:42:17.080Z,23.73
2024-01-31T07:43:17.083Z,23.70
2024-01-31T07:44:17.018Z,23.72
2024-01-31T07:45:17.023Z,23.74
2024-01-31T07:46:17.078Z,23.75
2024-01-31T07:47:17.027Z,23.76
2024-01-31T07:48:17.060Z,23.80
2024-01-31T07:49:17.190Z,23.77
2024-01-31T07:50:17.066Z,23.81
2024-01-31T07:51:17.034Z,23.77
2024-01-31T07:52:17.052Z,24.02
2024-01-31T07:53:17.104Z,24.60
2024-01-31T07:54:17.037Z,25.08
2024-01-31T07:55:17.131Z,25.44
2024-01-31T07:56:17.047Z,25.80
2024-01-31T07:57:17.045Z,26.48
2024-01-31T07:58:17.088Z,26.74
2024-01-31T07:59:17.152Z,26.93
2024-01-31T08:00:17.056Z,27.03
2024-01-31T08:01:17.216Z,27.36
2024-01-31T08:02:17.190Z,27.60
2024-01-31T08:03:17.060Z,27.84
2024-01-31T08:04:17.157Z,27.99
2024-01-31T08:05:17.055Z,28.19
2024-01-31T08:06:17.076Z,28.32
2024-01-31T08:07:17.087Z,28.44
2024-01-31T08:08:17.049Z,28.76
2024-01-31T08:10:17.091Z,29.02
2024-01-31T08:11:17.067Z,29.07
2024-01-31T08:12:17.075Z,29.11
2024-01-31T08:13:17.164Z,29.31
2024-01-31T08:14:17.077Z,29.35
2024-01-31T08:15:17.069Z,29.41
2024-01-31T08:16:17.130Z,29.60
2024-01-31T08:17:17.073Z,29.62
2024-01-31T08:18:17.115Z,29.73
2024-01-31T08:19:17.174Z,29.88
2024-01-31T08:20:17.344Z,29.98
2024-01-31T08:21:17.093Z,30.10
2024-01-31T08:22:17.650Z,30.21
2024-01-31T08:23:17.188Z,30.30
2024-01-31T08:24:17.175Z,30.50
2024-01-31T08:25:17.480Z,30.66
2024-01-31T08:26:17.191Z,30.73
2024-01-31T08:27:17.144Z,30.81
2024-01-31T08:28:17.162Z,30.97
2024-01-31T08:29:23.545Z,31.11
2024-01-31T08:30:18.158Z,31.13
2024-01-31T08:31:17.137Z,31.18
2024-01-31T08:32:17.144Z,31.19
2024-01-31T08:33:17.161Z,31.15
2024-01-31T08:34:17.217Z,31.40
2024-01-31T08:35:17.183Z,31.59
2024-01-31T08:36:17.134Z,31.70
2024-01-31T08:37:17.125Z,31.79
2024-01-31T08:38:17.131Z,31.89
2024-01-31T08:39:17.138Z,31.92
2024-01-31T08:40:20.720Z,32.02
2024-01-31T08:41:17.161Z,32.14
2024-01-31T08:42:17.152Z,32.22
2024-01-31T08:43:17.161Z,32.34
2024-01-31T08:44:17.178Z,32.44
2024-01-31T08:45:17.165Z,32.56
2024-01-31T08:46:17.192Z,32.55
2024-01-31T08:47:19.367Z,33.19
2024-01-31T08:48:17.169Z,33.01
2024-01-31T08:49:17.190Z,33.10
2024-01-31T08:50:17.176Z,32.85
2024-01-31T08:51:17.162Z,32.86
2024-01-31T08:52:17.180Z,32.98
2024-01-31T08:53:17.150Z,33.10
2024-01-31T08:54:17.175Z,33.08
2024-01-31T08:55:17.298Z,33.14
2024-01-31T08:56:17.262Z,33.19
2024-01-31T08:57:19.693Z,33.29
2024-01-31T08:58:17.168Z,33.34
2024-01-31T08:59:17.165Z,33.47
2024-01-31T09:00:17.170Z,33.52
2024-01-31T09:01:17.262Z,33.65
2024-01-31T09:02:17.346Z,33.82
2024-01-31T09:03:17.179Z,33.87
2024-01-31T09:04:18.569Z,33.85
2024-01-31T09:05:17.253Z,34.05
2024-01-31T09:06:17.239Z,34.31
2024-01-31T09:07:17.186Z,34.23
2024-01-31T09:08:17.183Z,34.28
2024-01-31T09:09:17.191Z,34.20
2024-01-31T09:10:17.297Z,34.21
2024-01-31T09:11:17.186Z,34.25
2024-01-31T09:12:17.198Z,34.41
2024-01-31T09:13:17.204Z,34.87
2024-01-31T09:14:17.228Z,34.58
2024-01-31T09:15:17.190Z,34.65
2024-01-31T09:16:17.247Z,34.68
2024-01-31T09:17:17.200Z,34.69
2024-01-31T09:18:17.300Z,34.68
2024-01-31T09:19:17.289Z,34.91
2024-01-31T09:20:17.347Z,34.91
2024-01-31T09:21:17.205Z,34.99
2024-01-31T09:22:17.246Z,35.02
2024-01-31T09:23:17.223Z,35.09
2024-01-31T09:24:17.225Z,35.20
2024-01-31T09:25:17.250Z,35.30
2024-01-31T09:26:17.232Z,35.29
2024-01-31T09:27:17.228Z,35.34
2024-01-31T09:28:17.252Z,35.38
2024-01-31T09:29:17.238Z,35.46
2024-01-31T09:30:17.236Z,35.85
2024-01-31T09:31:17.305Z,35.77
2024-01-31T09:32:18.249Z,35.82
2024-01-31T09:33:17.274Z,35.87
2024-01-31T09:34:17.290Z,35.93
2024-01-31T09:35:17.313Z,35.98
2024-01-31T09:36:17.247Z,36.02
2024-01-31T09:37:17.270Z,36.11
2024-01-31T09:38:17.249Z,35.98
2024-01-31T09:39:17.257Z,36.16
2024-01-31T09:40:17.496Z,36.22
2024-01-31T09:41:17.251Z,36.89
2024-01-31T09:42:17.268Z,37.20
2024-01-31T09:43:17.287Z,36.74
2024-01-31T09:44:17.262Z,36.70
2024-01-31T09:45:17.264Z,36.62
2024-01-31T09:46:17.294Z,37.00
2024-01-31T09:47:17.274Z,36.72
2024-01-31T09:48:17.346Z,36.72
2024-01-31T09:49:17.530Z,32.88
2024-01-31T09:50:17.343Z,31.82
2024-01-31T09:51:17.297Z,31.46
2024-01-31T09:52:17.297Z,30.67
2024-01-31T09:53:17.276Z,30.74
2024-01-31T09:54:17.288Z,31.09
2024-01-31T09:55:17.317Z,31.92
2024-01-31T09:56:17.273Z,31.54
2024-01-31T09:57:17.271Z,31.82
2024-01-31T09:58:17.296Z,31.85
2024-01-31T09:59:17.289Z,31.70
2024-01-31T10:00:17.277Z,32.24
2024-01-31T10:01:21.727Z,31.92
2024-01-31T10:02:18.367Z,31.97
2024-01-31T10:03:17.313Z,31.59
2024-01-31T10:04:17.339Z,32.12
2024-01-31T10:05:17.281Z,31.78
2024-01-31T10:06:17.478Z,31.77
2024-01-31T10:07:17.310Z,31.36
2024-01-31T10:08:17.298Z,31.26
2024-01-31T10:09:17.288Z,31.10
2024-01-31T10:10:17.340Z,30.69
2024-01-31T10:11:17.294Z,30.57
2024-01-31T10:12:17.381Z,30.69
2024-01-31T10:13:17.393Z,30.59
2024-01-31T10:14:17.319Z,30.81
2024-01-31T10:15:17.306Z,30.20
2024-01-31T10:16:17.312Z,30.53
2024-01-31T10:17:17.299Z,30.30
2024-01-31T10:18:17.369Z,30.58
2024-01-31T10:19:17.367Z,30.53
2024-01-31T10:20:17.465Z,30.39
2024-01-31T10:21:17.374Z,30.06
2024-01-31T10:22:17.470Z,30.13
2024-01-31T10:23:17.455Z,29.56
2024-01-31T10:24:17.817Z,29.72
2024-01-31T10:25:17.701Z,29.91
2024-01-31T10:26:17.710Z,28.77
2024-01-31T10:27:17.639Z,29.72
2024-01-31T10:28:17.728Z,29.48
2024-01-31T10:29:17.809Z,29.79
2024-01-31T10:30:17.810Z,29.71
2024-01-31T10:31:17.940Z,29.47
2024-01-31T10:32:17.974Z,29.61
2024-01-31T10:33:18.085Z,29.57
2024-01-31T10:34:21.841Z,29.54
2024-01-31T10:35:28.498Z,29.36
2024-01-31T10:37:52.197Z,28.77
2024-01-31T10:38:19.238Z,29.07
2024-01-31T10:39:18.185Z,29.03
2024-01-31T10:40:18.198Z,28.94
2024-01-31T10:41:18.053Z,28.96
2024-01-31T10:42:18.085Z,28.63
2024-01-31T10:43:18.058Z,28.72
2024-01-31T10:44:18.105Z,28.68
2024-01-31T10:45:18.185Z,28.74
2024-01-31T10:46:18.091Z,28.59
2024-01-31T10:47:18.122Z,27.69
2024-01-31T10:48:18.237Z,27.26
2024-01-31T10:49:18.892Z,27.19
2024-01-31T10:50:18.223Z,26.77
2024-01-31T10:51:21.985Z,27.17
2024-01-31T10:52:18.288Z,26.97
2024-01-31T10:53:18.258Z,27.63
2024-01-31T10:54:18.438Z,28.11
2024-01-31T10:55:18.410Z,28.32
2024-01-31T10:56:18.411Z,28.53
2024-01-31T10:57:18.266Z,28.79
2024-01-31T10:58:18.277Z,28.99
2024-01-31T10:59:18.280Z,29.02
2024-01-31T11:00:18.351Z,29.17
2024-01-31T11:01:18.335Z,29.25
2024-01-31T11:02:18.282Z,29.43
2024-01-31T11:03:18.323Z,29.50
2024-01-31T11:04:18.278Z,29.65
2024-01-31T11:05:18.388Z,29.69
2024-01-31T11:06:18.435Z,29.69
2024-01-31T11:07:18.731Z,29.81
2024-01-31T11:08:18.297Z,29.89
2024-01-31T11:09:18.304Z,29.91
2024-01-31T11:10:18.308Z,29.97
2024-01-31T11:11:18.290Z,30.14
2024-01-31T11:12:18.303Z,30.28
2024-01-31T11:13:18.311Z,30.35
2024-01-31T11:14:18.308Z,30.39
2024-01-31T11:15:18.317Z,30.41
2024-01-31T11:16:18.312Z,30.44
2024-01-31T11:17:18.314Z,30.51
2024-01-31T11:18:18.449Z,30.59
2024-01-31T11:19:18.369Z,30.65
2024-01-31T11:20:18.321Z,30.68
2024-01-31T11:21:18.385Z,30.87
2024-01-31T11:22:18.334Z,30.92
2024-01-31T11:23:18.343Z,31.07
2024-01-31T11:24:18.450Z,31.02
2024-01-31T11:25:18.345Z,31.23
2024-01-31T11:26:18.356Z,31.21
2024-01-31T11:27:18.336Z,31.19
2024-01-31T11:28:18.338Z,31.33
2024-01-31T11:29:18.335Z,31.33
2024-01-31T11:30:18.403Z,31.46
2024-01-31T11:31:18.381Z,31.45
2024-01-31T11:32:18.352Z,31.65
2024-01-31T11:33:18.655Z,31.69
2024-01-31T11:34:18.494Z,31.67
2024-01-31T11:35:18.345Z,31.60
2024-01-31T11:36:18.432Z,31.87
2024-01-31T11:37:18.450Z,32.00
2024-01-31T11:38:18.764Z,31.97
2024-01-31T11:39:18.566Z,31.95
2024-01-31T11:40:18.622Z,31.94
2024-01-31T11:41:18.658Z,32.01
2024-01-31T11:42:18.722Z,31.82
2024-01-31T11:43:18.831Z,31.34
2024-01-31T11:44:18.780Z,32.00
2024-01-31T11:45:18.796Z,31.79
2024-01-31T11:46:18.839Z,31.91
2024-01-31T11:47:18.866Z,31.92
2024-01-31T11:48:19.042Z,31.47
2024-01-31T11:49:19.049Z,31.22
2024-01-31T11:50:18.970Z,31.35
2024-01-31T11:51:19.001Z,31.70
2024-01-31T11:52:19.048Z,31.70
2024-01-31T11:53:19.046Z,31.76
2024-01-31T11:54:19.055Z,31.60
2024-01-31T11:55:19.092Z,31.67
2024-01-31T11:56:19.116Z,31.62
2024-01-31T11:57:19.136Z,31.59
2024-01-31T11:58:19.160Z,31.69
2024-01-31T11:59:19.162Z,31.84
2024-01-31T12:00:19.335Z,31.68
2024-01-31T12:01:19.230Z,31.76
2024-01-31T12:02:19.247Z,31.80
2024-01-31T12:03:19.256Z,31.79
2024-01-31T12:04:19.318Z,31.55
2024-01-31T12:05:19.373Z,31.73
2024-01-31T12:06:19.405Z,31.65
2024-01-31T12:07:19.444Z,31.95
2024-01-31T12:08:19.416Z,31.90
2024-01-31T12:09:19.394Z,31.70
2024-01-31T12:10:19.410Z,31.79
2024-01-31T12:11:19.428Z,31.85
2024-01-31T12:12:19.449Z,31.57
2024-01-31T12:13:19.479Z,31.76
2024-01-31T12:14:19.503Z,31.67
2024-01-31T12:15:19.532Z,31.58
2024-01-31T12:16:19.546Z,31.69
2024-01-31T12:17:19.541Z,31.66
2024-01-31T12:18:19.753Z,31.51
2024-01-31T12:19:19.825Z,31.47
2024-01-31T12:20:19.635Z,31.70
2024-01-31T12:21:19.646Z,31.53
2024-01-31T12:22:19.729Z,31.62
2024-01-31T12:23:19.697Z,31.50
2024-01-31T12:24:19.732Z,31.63
2024-01-31T12:25:19.879Z,31.54
2024-01-31T12:26:19.796Z,31.51
2024-01-31T12:27:19.803Z,31.36
2024-01-31T12:28:19.833Z,31.50
2024-01-31T12:29:19.938Z,31.39
2024-01-31T12:30:19.994Z,31.51
2024-01-31T12:31:19.932Z,31.77
2024-01-31T12:32:19.957Z,31.68
2024-01-31T12:33:20.131Z,31.57
2024-01-31T12:34:20.077Z,31.41
2024-01-31T12:35:20.269Z,31.38
2024-01-31T12:36:20.196Z,31.55
2024-01-31T12:37:20.223Z,31.65
2024-01-31T12:38:20.266Z,31.67
2024-01-31T12:39:20.308Z,31.75
2024-01-31T12:40:20.328Z,31.64
2024-01-31T12:41:20.472Z,31.81
2024-01-31T12:42:20.484Z,31.19
2024-01-31T12:43:20.400Z,31.20
2024-01-31T12:44:20.567Z,31.12
2024-01-31T12:45:20.598Z,31.15
2024-01-31T12:46:20.583Z,31.18
2024-01-31T12:47:20.706Z,31.42
2024-01-31T12:48:20.745Z,31.33
2024-01-31T12:49:20.766Z,31.63
2024-01-31T12:50:20.806Z,31.51
2024-01-31T12:51:20.773Z,31.39
2024-01-31T12:52:20.776Z,31.64
2024-01-31T12:53:20.854Z,31.68
2024-01-31T12:54:20.893Z,31.81
2024-01-31T12:55:20.866Z,31.80
2024-01-31T12:56:20.963Z,31.33